Time;durP1;ratioP1;P1;durP2;ratioP2;P2;SDS_P1;SDS_P2;PMS_P1;PMS_P2;Temp;Humidity;BMP_temperature;BMP_pressure;BME280_temperature;BME280_humidity;BME280_pressure;Samples;Min_cycle;Max_cycle;Signal;HPM_P1;HPM_P2
2023/02/01 00:02:17;;;;;;;19.73;3.50;;;6.30;99.90;;;;;;5020075;28;20091;-96
2023/02/01 00:04:48;;;;;;;16.92;3.97;;;6.30;99.90;;;;;;5002306;28;20030;-96
2023/02/01 00:07:13;;;;;;;26.77;3.65;;;6.20;99.90;;;;;;5007090;28;20038;-96
2023/02/01 00:09:56;;;;;;;19.45;3.63;;;6.20;99.90;;;;;;5018317;28;20049;-96
2023/02/01 00:12:29;;;;;;;16.90;2.80;;;6.20;99.90;;;;;;4985503;28;20128;-96
2023/02/01 00:14:57;;;;;;;15.52;2.70;;;6.20;99.90;;;;;;5000481;28;20113;-95
2023/02/01 00:17:41;;;;;;;12.25;2.53;;;6.20;99.90;;;;;;5022037;28;20097;-96
2023/02/01 00:20:07;;;;;;;18.25;2.70;;;6.20;99.90;;;;;;5001597;28;20041;-96
2023/02/01 00:22:36;;;;;;;17.73;2.70;;;6.20;99.90;;;;;;5020543;28;20041;-96
2023/02/01 00:25:05;;;;;;;17.33;3.03;;;6.10;99.90;;;;;;5024183;28;20030;-96
2023/02/01 00:27:32;;;;;;;20.80;4.03;;;6.20;99.90;;;;;;5021380;28;20054;-95
2023/02/01 00:30:00;;;;;;;13.07;2.47;;;6.20;99.90;;;;;;5025033;28;20040;-96
2023/02/01 00:32:31;;;;;;;13.85;2.80;;;6.20;99.90;;;;;;5004265;28;20034;-95
2023/02/01 00:34:57;;;;;;;19.65;3.30;;;6.20;99.90;;;;;;5019353;28;20057;-95
2023/02/01 00:37:23;;;;;;;14.50;2.60;;;6.20;99.90;;;;;;4999212;28;20038;-96
2023/02/01 00:39:50;;;;;;;16.98;3.17;;;6.20;99.90;;;;;;4999579;28;20038;-95
2023/02/01 00:45:05;;;;;;;18.48;4.20;;;6.20;99.90;;;;;;5016852;28;20057;-96
2023/02/01 00:47:30;;;;;;;22.85;3.47;;;6.20;99.90;;;;;;5015979;28;20544;-96
2023/02/01 00:50:01;;;;;;;16.45;2.97;;;6.20;99.90;;;;;;4999280;28;20042;-96
2023/02/01 00:52:29;;;;;;;;;;;6.20;99.90;;;;;;5000941;28;20045;-96
2023/02/01 00:54:58;;;;;;;15.25;3.15;;;6.20;99.90;;;;;;4999564;28;19952;-96
2023/02/01 00:57:24;;;;;;;17.52;2.70;;;6.20;99.90;;;;;;5001224;28;20045;-96
2023/02/01 00:59:58;;;;;;;18.73;3.40;;;6.20;99.90;;;;;;5019400;28;20098;-96
2023/02/01 01:02:29;;;;;;;16.48;3.08;;;6.20;99.90;;;;;;5001391;28;20038;-95
2023/02/01 01:05:06;;;;;;;17.23;3.85;;;6.20;99.90;;;;;;5022086;28;20061;-95
2023/02/01 01:07:34;;;;;;;15.00;2.85;;;6.20;99.90;;;;;;4991111;28;20077;-96
2023/02/01 01:10:05;;;;;;;21.52;4.03;;;6.20;99.90;;;;;;5021266;28;20076;-96
2023/02/01 01:12:34;;;;;;;22.38;3.15;;;6.20;99.90;;;;;;5005598;28;20097;-94
2023/02/01 01:15:02;;;;;;;18.20;3.15;;;6.20;99.90;;;;;;5004223;28;20045;-95
2023/02/01 01:17:37;;;;;;;17.42;3.38;;;6.20;99.90;;;;;;5018743;28;20033;-96
2023/02/01 01:20:06;;;;;;;18.95;3.67;;;6.20;99.90;;;;;;5017995;28;20126;-96
2023/02/01 01:22:32;;;;;;;17.48;3.03;;;6.20;99.90;;;;;;5001889;28;20026;-95
2023/02/01 01:24:58;;;;;;;17.33;3.03;;;6.30;99.90;;;;;;5018185;28;20041;-96
2023/02/01 01:27:32;;;;;;;20.08;3.10;;;6.30;99.90;;;;;;5002446;28;20061;-95
2023/02/01 01:30:01;;;;;;;21.45;3.60;;;6.20;99.90;;;;;;5001870;28;20049;-96
2023/02/01 01:32:28;;;;;;;19.42;3.47;;;6.30;99.90;;;;;;5002933;28;20390;-96
2023/02/01 01:35:01;;;;;;;17.63;3.67;;;6.30;99.90;;;;;;5002471;28;20057;-96
2023/02/01 01:37:29;;;;;;;33.50;3.60;;;6.30;99.90;;;;;;5017926;28;20033;-95
2023/02/01 01:39:57;;;;;;;18.55;3.80;;;6.30;99.90;;;;;;5002605;28;20065;-96
2023/02/01 01:42:26;;;;;;;16.70;3.85;;;6.30;99.90;;;;;;5018386;28;20030;-96
2023/02/01 01:45:06;;;;;;;19.35;3.65;;;6.30;99.90;;;;;;5018390;28;20034;-96
2023/02/01 01:47:46;;;;;;;20.50;3.20;;;6.30;99.90;;;;;;5002209;28;20031;-96
2023/02/01 01:50:17;;;;;;;22.73;4.20;;;6.40;99.90;;;;;;5018424;28;20148;-95
2023/02/01 01:52:51;;;;;;;21.48;3.30;;;6.40;99.90;;;;;;5018098;28;20121;-96
2023/02/01 01:55:22;;;;;;;22.45;3.10;;;6.40;99.90;;;;;;5020111;28;20050;-95
2023/02/01 01:58:14;;;;;;;16.85;3.17;;;6.30;99.90;;;;;;5001735;28;20080;-95
2023/02/01 02:00:43;;;;;;;22.95;3.35;;;6.30;99.90;;;;;;5017304;28;20034;-96
2023/02/01 02:03:19;;;;;;;22.58;4.00;;;6.30;99.90;;;;;;5001900;28;20085;-96
2023/02/01 02:05:53;;;;;;;23.10;4.20;;;6.30;99.90;;;;;;5020504;28;20061;-96
2023/02/01 02:08:27;;;;;;;18.95;3.47;;;6.30;99.90;;;;;;5032383;28;20021;-95
2023/02/01 02:11:02;;;;;;;12.85;2.40;;;6.30;99.90;;;;;;5005904;28;20096;-96
2023/02/01 02:13:58;;;;;;;23.40;3.42;;;6.20;99.90;;;;;;5002995;28;20132;-96
2023/02/01 02:16:27;;;;;;;21.38;4.00;;;6.20;99.90;;;;;;4998187;28;20038;-95
2023/02/01 02:19:06;;;;;;;15.23;3.17;;;6.20;99.90;;;;;;5001945;28;20038;-95
2023/02/01 02:21:50;;;;;;;22.23;2.88;;;6.20;99.90;;;;;;5017344;28;20426;-96
2023/02/01 02:25:00;;;;;;;22.52;3.40;;;6.10;99.90;;;;;;5002525;28;20045;-96
2023/02/01 02:27:44;;;;;;;19.85;2.80;;;6.20;99.90;;;;;;5019998;28;20037;-96
2023/02/01 02:30:39;;;;;;;17.65;3.47;;;6.10;99.90;;;;;;5002026;28;20042;-96
2023/02/01 02:33:39;;;;;;;22.85;4.07;;;6.10;99.90;;;;;;5017938;28;20045;-95
2023/02/01 02:36:21;;;;;;;18.27;3.03;;;6.10;99.90;;;;;;5001295;28;20071;-96
2023/02/01 02:38:52;;;;;;;17.73;3.67;;;6.10;99.90;;;;;;5020120;28;20042;-95
2023/02/01 02:47:55;;;;;;;23.02;3.42;;;6.10;99.90;;;;;;5020396;28;20057;-95
2023/02/01 03:05:21;;;;;;;23.25;3.70;;;6.10;99.90;;;;;;5020080;28;20069;-96
2023/02/01 03:07:55;;;;;;;16.73;2.83;;;6.10;99.90;;;;;;5001867;28;20042;-96
2023/02/01 03:13:27;;;;;;;24.58;3.33;;;6.10;99.90;;;;;;5018117;28;20038;-96
2023/02/01 03:16:31;;;;;;;20.98;3.45;;;6.10;99.90;;;;;;5002104;28;20038;-96
2023/02/01 03:19:03;;;;;;;23.92;4.43;;;6.10;99.90;;;;;;4984997;28;20551;-95
2023/02/01 03:21:41;;;;;;;15.35;2.83;;;6.10;99.90;;;;;;5018224;28;20103;-96
2023/02/01 03:24:39;;;;;;;16.13;2.67;;;6.10;99.90;;;;;;5001193;28;20034;-95
2023/02/01 03:27:26;;;;;;;22.17;4.15;;;6.10;99.90;;;;;;4995945;28;20050;-96
2023/02/01 03:30:17;;;;;;;19.42;3.50;;;6.10;99.90;;;;;;5016059;28;20029;-95
2023/02/01 03:33:01;;;;;;;16.27;3.40;;;6.20;99.90;;;;;;5017275;28;20038;-96
2023/02/01 03:35:46;;;;;;;;;;;;;;;;;;;;;
2023/02/01 03:38:19;;;;;;;19.27;3.22;;;6.20;99.90;;;;;;5017076;28;20044;-95
2023/02/01 03:40:54;;;;;;;30.42;3.75;;;6.20;99.90;;;;;;5016187;28;20034;-96
2023/02/01 03:43:31;;;;;;;19.77;3.30;;;6.20;99.90;;;;;;5016584;28;20034;-96
2023/02/01 03:46:04;;;;;;;20.75;3.33;;;6.20;99.90;;;;;;5017298;28;20034;-96
2023/02/01 03:48:33;;;;;;;26.15;3.10;;;6.20;99.90;;;;;;5019607;28;20066;-96
2023/02/01 03:51:14;;;;;;;;;;;;;;;;;;;;;
2023/02/01 03:53:45;;;;;;;22.90;3.30;;;6.30;99.90;;;;;;5018347;28;20109;-96
2023/02/01 03:56:21;;;;;;;21.98;3.50;;;6.30;99.90;;;;;;5016919;28;20136;-96
2023/02/01 03:58:58;;;;;;;23.33;4.00;;;6.30;99.90;;;;;;5017200;28;20044;-96
2023/02/01 04:01:36;;;;;;;19.15;3.38;;;6.30;99.90;;;;;;5016683;28;20025;-96
2023/02/01 04:04:25;;;;;;;23.48;4.18;;;6.30;99.90;;;;;;5019996;28;20062;-96
2023/02/01 04:06:51;;;;;;;22.92;3.80;;;6.20;99.90;;;;;;5002541;28;20073;-96
2023/02/01 04:09:22;;;;;;;21.05;3.97;;;6.30;99.90;;;;;;5018359;28;20053;-96
2023/02/01 04:11:57;;;;;;;24.75;3.42;;;6.30;99.90;;;;;;4985389;28;20120;-96
2023/02/01 04:14:23;;;;;;;36.15;5.70;;;6.30;99.90;;;;;;5017670;28;20074;-96
2023/02/01 04:16:54;;;;;;;21.63;3.97;;;6.30;99.90;;;;;;5001496;28;20038;-95
2023/02/01 04:19:22;;;;;;;;;;;6.30;99.90;;;;;;5002264;28;20128;-96
2023/02/01 04:21:54;;;;;;;20.83;3.22;;;6.30;99.90;;;;;;5000660;28;19912;-96
2023/02/01 04:24:24;;;;;;;24.23;3.75;;;6.20;99.90;;;;;;5001555;28;20140;-96
2023/02/01 04:27:02;;;;;;;;;;;;;;;;;;;;;
2023/02/01 04:29:45;;;;;;;;;;;;;;;;;;;;;
2023/02/01 04:32:15;;;;;;;23.80;4.32;;;6.20;99.90;;;;;;5024299;28;20089;-96
2023/02/01 04:34:53;;;;;;;18.58;3.30;;;6.20;99.90;;;;;;5001345;28;20030;-95
2023/02/01 04:37:32;;;;;;;19.63;3.17;;;6.30;99.90;;;;;;4988088;28;20045;-94
2023/02/01 04:40:03;;;;;;;19.10;3.53;;;6.20;99.90;;;;;;5001884;28;20042;-96
2023/02/01 04:42:34;;;;;;;22.77;4.18;;;6.30;99.90;;;;;;5016369;28;20030;-95
2023/02/01 04:45:11;;;;;;;29.58;4.53;;;6.30;99.90;;;;;;5019184;28;20044;-96
2023/02/01 04:47:42;;;;;;;21.33;3.40;;;6.30;99.90;;;;;;5002111;28;20072;-96
2023/02/01 04:50:13;;;;;;;;;;;6.30;99.90;;;;;;5003358;28;20022;-96
2023/02/01 04:52:38;;;;;;;27.30;3.63;;;6.30;99.90;;;;;;5047981;22;19921;-92
2023/02/01 04:55:04;;;;;;;25.98;3.83;;;6.30;99.90;;;;;;4934673;28;20042;-92
2023/02/01 04:57:30;;;;;;;24.17;4.20;;;6.40;99.90;;;;;;4957503;28;20027;-92
2023/02/01 04:59:56;;;;;;;24.30;5.15;;;6.40;99.90;;;;;;4959982;28;20046;-93
2023/02/01 05:02:21;;;;;;;16.27;3.05;;;6.40;99.90;;;;;;4951493;28;20093;-90
2023/02/01 05:04:47;;;;;;;20.73;3.40;;;6.50;99.90;;;;;;4927271;28;20070;-90
2023/02/01 05:07:13;;;;;;;14.52;3.10;;;6.50;99.90;;;;;;4927571;28;20142;-90
2023/02/01 05:09:38;;;;;;;17.67;3.80;;;6.50;99.90;;;;;;4958979;28;20057;-90
2023/02/01 05:14:48;;;;;;;21.98;3.85;;;6.60;99.90;;;;;;4951506;28;20053;-90
2023/02/01 05:17:14;;;;;;;17.70;3.50;;;6.60;99.90;;;;;;4948837;28;20035;-88
2023/02/01 05:19:40;;;;;;;21.35;3.55;;;6.60;99.90;;;;;;4961647;28;20054;-92
2023/02/01 05:22:06;;;;;;;19.52;3.90;;;6.60;99.90;;;;;;4927518;28;20038;-92
2023/02/01 05:24:31;;;;;;;12.50;2.53;;;6.70;99.90;;;;;;4927608;28;20075;-92
2023/02/01 05:26:57;;;;;;;29.50;4.15;;;6.70;99.90;;;;;;4927768;28;20039;-93
2023/02/01 05:29:23;;;;;;;23.30;4.22;;;6.70;99.90;;;;;;4938736;28;20061;-89
2023/02/01 05:31:48;;;;;;;21.38;3.53;;;6.70;99.90;;;;;;4959062;28;20043;-89
2023/02/01 05:34:15;;;;;;;19.83;3.60;;;6.70;99.90;;;;;;4952204;28;20038;-89
2023/02/01 05:36:41;;;;;;;18.63;3.33;;;6.70;99.90;;;;;;4943067;28;20050;-88
2023/02/01 05:39:07;;;;;;;22.48;4.30;;;6.80;99.90;;;;;;4943582;28;20039;-88
2023/02/01 05:41:33;;;;;;;23.60;3.20;;;6.80;99.90;;;;;;4958516;28;20050;-89
2023/02/01 05:43:58;;;;;;;21.60;3.40;;;6.80;99.90;;;;;;4958697;28;20074;-89
2023/02/01 05:46:24;;;;;;;29.40;3.60;;;6.80;99.90;;;;;;4958241;28;20039;-89
2023/02/01 05:48:50;;;;;;;20.63;3.42;;;6.80;99.90;;;;;;4942240;28;20035;-89
2023/02/01 05:51:15;;;;;;;16.63;3.25;;;6.80;99.90;;;;;;4961717;28;20042;-89
2023/02/01 05:53:41;;;;;;;16.00;3.38;;;6.80;99.90;;;;;;4963171;28;20043;-88
2023/02/01 05:56:07;;;;;;;31.02;5.72;;;6.90;99.90;;;;;;4965453;28;20031;-89
2023/02/01 05:58:32;;;;;;;15.35;2.92;;;6.90;99.90;;;;;;4964250;28;20411;-90
2023/02/01 06:01:03;;;;;;;18.25;3.60;;;6.90;99.90;;;;;;4960926;28;20067;-87
2023/02/01 06:03:29;;;;;;;18.38;3.38;;;6.90;99.90;;;;;;4959725;29;20456;-87
2023/02/01 06:05:55;;;;;;;21.98;3.60;;;6.90;99.90;;;;;;4961354;29;20031;-87
2023/02/01 06:08:21;;;;;;;20.73;4.20;;;6.90;99.90;;;;;;4979508;28;20043;-93
2023/02/01 06:10:47;;;;;;;23.08;3.70;;;6.90;99.90;;;;;;4963943;28;20042;-93
2023/02/01 06:13:12;;;;;;;22.52;4.20;;;7.00;99.90;;;;;;4962171;28;20031;-94
2023/02/01 06:15:38;;;;;;;19.27;3.67;;;7.00;99.90;;;;;;4962021;28;20085;-94
2023/02/01 06:18:04;;;;;;;18.00;2.78;;;7.00;99.90;;;;;;4961670;28;20041;-94
2023/02/01 06:20:29;;;;;;;23.17;3.22;;;7.00;99.90;;;;;;4961846;28;20384;-90
2023/02/01 06:22:55;;;;;;;24.02;3.70;;;7.00;99.90;;;;;;4961635;28;20125;-89
2023/02/01 06:25:21;;;;;;;20.45;3.95;;;7.00;99.90;;;;;;4945555;28;20061;-88
2023/02/01 06:27:48;;;;;;;21.67;4.35;;;7.00;99.90;;;;;;4958898;29;20039;-88
2023/02/01 06:30:14;;;;;;;22.13;4.35;;;7.00;99.90;;;;;;4943041;29;20062;-88
2023/02/01 06:32:40;;;;;;;16.60;3.38;;;7.00;99.90;;;;;;4962851;29;20091;-88
2023/02/01 06:35:08;;;;;;;19.73;3.50;;;7.00;99.90;;;;;;4942780;29;20038;-88
2023/02/01 06:37:36;;;;;;;20.20;2.95;;;7.00;99.90;;;;;;4964144;29;20031;-87
2023/02/01 06:40:01;;;;;;;24.30;4.28;;;7.00;99.90;;;;;;4961200;29;20485;-89
2023/02/01 06:42:27;;;;;;;20.98;3.67;;;7.00;99.90;;;;;;4958059;28;20023;-92
2023/02/01 06:44:53;;;;;;;20.90;3.78;;;7.00;99.90;;;;;;4961045;29;20050;-92
2023/02/01 06:47:18;;;;;;;17.55;3.22;;;7.10;99.90;;;;;;4964846;29;20035;-92
2023/02/01 06:49:44;;;;;;;15.90;3.45;;;7.10;99.90;;;;;;4977973;29;20031;-91
2023/02/01 06:52:09;;;;;;;24.98;3.55;;;7.10;99.90;;;;;;4961133;29;20050;-92
2023/02/01 06:54:37;;;;;;;24.00;5.28;;;7.10;99.90;;;;;;4956244;29;20084;-92
2023/02/01 06:57:03;;;;;;;23.70;3.38;;;7.10;99.90;;;;;;4946514;29;20034;-89
2023/02/01 06:59:28;;;;;;;19.15;3.35;;;7.10;99.90;;;;;;4960957;29;20050;-91
2023/02/01 07:01:54;;;;;;;20.15;3.83;;;7.10;99.90;;;;;;4948630;29;20043;-90
2023/02/01 07:04:20;;;;;;;24.98;4.40;;;7.10;99.90;;;;;;4945464;29;20499;-90
2023/02/01 07:06:45;;;;;;;17.77;3.50;;;7.10;99.90;;;;;;4942228;29;20051;-90
2023/02/01 07:09:13;;;;;;;16.75;2.78;;;7.20;99.90;;;;;;4957735;29;20045;-90
2023/02/01 07:11:42;;;;;;;22.60;4.60;;;7.10;99.90;;;;;;4942983;29;20027;-91
2023/02/01 07:14:11;;;;;;;24.02;3.72;;;7.10;99.90;;;;;;4967402;29;20086;-90
2023/02/01 07:16:37;;;;;;;20.17;4.28;;;7.20;99.90;;;;;;4941872;29;20487;-90
2023/02/01 07:19:04;;;;;;;18.10;3.20;;;7.20;99.90;;;;;;4952978;29;20039;-90
2023/02/01 07:21:30;;;;;;;20.92;3.53;;;7.20;99.90;;;;;;4941348;29;20130;-91
2023/02/01 07:23:55;;;;;;;24.95;4.78;;;7.20;99.90;;;;;;4941764;29;20083;-90
2023/02/01 07:26:21;;;;;;;20.40;3.42;;;7.20;99.90;;;;;;4941950;29;20070;-91
2023/02/01 07:28:47;;;;;;;21.27;3.40;;;7.20;99.90;;;;;;4941755;29;20054;-90
2023/02/01 07:31:15;;;;;;;21.20;3.53;;;7.20;99.90;;;;;;4959329;28;20034;-88
2023/02/01 07:33:41;;;;;;;20.85;4.25;;;7.20;99.90;;;;;;4940830;29;20046;-89
2023/02/01 07:36:12;;;;;;;18.48;3.70;;;7.10;99.90;;;;;;4925246;29;20067;-88
2023/02/01 07:38:37;;;;;;;17.23;3.25;;;7.10;99.90;;;;;;4961003;28;20541;-89
2023/02/01 07:41:05;;;;;;;20.40;4.20;;;7.10;99.90;;;;;;4965963;28;20043;-89
2023/02/01 07:43:31;;;;;;;26.85;3.63;;;7.10;99.90;;;;;;4960221;28;20046;-89
2023/02/01 07:45:57;;;;;;;14.75;3.47;;;7.20;99.90;;;;;;4990846;28;20027;-89
2023/02/01 07:48:24;;;;;;;20.17;3.22;;;7.10;99.90;;;;;;4965197;28;20047;-90
2023/02/01 07:51:10;;;;;;;18.33;3.38;;;7.10;99.90;;;;;;4962553;28;20034;-90
2023/02/01 07:53:37;;;;;;;17.85;3.78;;;7.10;99.90;;;;;;4963205;28;20047;-90
2023/02/01 07:56:08;;;;;;;19.20;3.15;;;7.10;99.90;;;;;;4966105;28;20519;-89
2023/02/01 07:58:34;;;;;;;21.27;3.72;;;7.10;99.90;;;;;;4959724;28;20030;-90
2023/02/01 08:03:52;;;;;;;19.63;3.78;;;7.10;99.90;;;;;;4956068;28;20089;-93
2023/02/01 08:06:34;;;;;;;22.80;3.33;;;7.10;99.90;;;;;;4952766;29;20053;-93
2023/02/01 08:09:16;;;;;;;21.33;3.47;;;7.10;99.90;;;;;;4977252;28;20050;-92
2023/02/01 08:11:48;;;;;;;19.70;4.10;;;7.10;99.90;;;;;;4960746;28;20503;-93
2023/02/01 08:14:22;;;;;;;23.20;3.30;;;7.10;99.90;;;;;;4945866;28;20488;-92
2023/02/01 08:16:50;;;;;;;20.88;3.70;;;7.10;99.90;;;;;;4943465;29;20105;-93
2023/02/01 08:19:15;;;;;;;20.20;3.60;;;7.10;99.90;;;;;;4944266;28;20399;-94
2023/02/01 08:21:53;;;;;;;17.48;3.22;;;7.10;99.90;;;;;;4940508;29;20039;-94
2023/02/01 08:24:25;;;;;;;22.10;3.38;;;7.10;99.90;;;;;;4956782;28;20488;-92
2023/02/01 08:37:01;;;;;;;24.25;4.45;;;7.10;99.90;;;;;;4964169;28;20438;-92
2023/02/01 08:39:27;;;;;;;12.20;2.78;;;7.10;99.90;;;;;;4959930;28;20527;-93
2023/02/01 08:44:42;;;;;;;23.08;4.53;;;7.10;99.90;;;;;;4929558;29;20048;-93
2023/02/01 08:47:32;;;;;;;18.17;4.43;;;7.10;99.90;;;;;;4942156;28;20042;-90
2023/02/01 08:50:08;;;;;;;;;;;;;;;;;;;;;
2023/02/01 08:53:24;;;;;;;18.60;3.65;;;7.20;99.90;;;;;;4905824;29;20036;-92
2023/02/01 08:59:15;;;;;;;16.05;3.25;;;7.20;99.90;;;;;;4913811;29;20134;-93
2023/02/01 09:12:06;;;;;;;17.38;4.20;;;7.40;99.90;;;;;;4905042;29;20072;-90
2023/02/01 09:14:37;;;;;;;17.88;3.22;;;7.50;99.90;;;;;;4891669;29;20131;-91
2023/02/01 09:20:39;;;;;;;18.63;2.72;;;7.60;99.90;;;;;;4905339;29;20414;-92
2023/02/01 09:23:07;;;;;;;22.55;4.15;;;7.60;99.90;;;;;;4892153;29;20056;-92
2023/02/01 09:25:38;;;;;;;19.65;3.28;;;7.60;99.90;;;;;;4901516;29;20040;-93
2023/02/01 09:28:05;;;;;;;18.52;3.22;;;7.60;99.90;;;;;;4927074;23;20055;-89
2023/02/01 09:30:37;;;;;;;20.85;3.50;;;7.60;99.90;;;;;;5011726;28;20054;-91
2023/02/01 09:33:43;;;;;;;23.98;3.50;;;7.70;99.90;;;;;;5039623;28;20030;-90
2023/02/01 09:36:15;;;;;;;24.92;5.18;;;7.70;99.90;;;;;;5023701;23;20050;-95
2023/02/01 09:38:41;;;;;;;22.55;3.97;;;7.70;99.90;;;;;;5000981;28;20129;-93
2023/02/01 09:41:40;;;;;;;21.77;3.72;;;7.80;99.90;;;;;;4977652;28;20058;-94
2023/02/01 09:44:21;;;;;;;19.42;3.33;;;7.80;99.90;;;;;;4999560;28;20034;-91
2023/02/01 09:46:55;;;;;;;20.08;4.88;;;7.90;99.90;;;;;;4997964;28;20041;-94
2023/02/01 09:49:30;;;;;;;25.05;3.72;;;7.90;99.90;;;;;;4998678;28;20037;-94
2023/02/01 09:51:57;;;;;;;17.38;3.35;;;8.00;99.90;;;;;;5000277;28;20045;-94
2023/02/01 09:54:39;;;;;;;20.25;3.58;;;8.00;99.90;;;;;;4978708;28;20053;-93
2023/02/01 09:57:09;;;;;;;18.55;3.80;;;8.00;99.90;;;;;;5001527;28;20042;-92
2023/02/01 09:59:41;;;;;;;23.80;5.07;;;8.10;99.90;;;;;;4997419;28;20055;-94
2023/02/01 10:02:20;;;;;;;24.50;4.25;;;8.10;99.90;;;;;;5016713;28;20470;-94
2023/02/01 10:04:48;;;;;;;16.83;3.78;;;8.20;99.90;;;;;;4992623;28;20049;-92
2023/02/01 10:07:19;;;;;;;19.00;3.90;;;8.20;99.90;;;;;;4995229;28;20038;-94
2023/02/01 10:09:50;;;;;;;26.85;5.78;;;8.20;99.90;;;;;;4996503;28;20038;-93
2023/02/01 10:12:35;;;;;;;;;;;8.20;99.90;;;;;;4989570;28;20038;-93
2023/02/01 10:15:33;;;;;;;18.33;3.35;;;8.20;99.90;;;;;;4986079;28;19929;-91
2023/02/01 10:18:13;;;;;;;19.25;4.18;;;8.20;99.90;;;;;;4997218;28;20038;-91
2023/02/01 10:21:06;;;;;;;18.92;3.42;;;8.20;99.90;;;;;;4991122;28;20030;-88
2023/02/01 10:23:32;;;;;;;18.98;3.78;;;8.20;99.90;;;;;;4990644;28;20129;-90
2023/02/01 10:26:21;;;;;;;19.70;3.60;;;8.20;99.90;;;;;;5010202;28;20541;-91
2023/02/01 10:28:52;;;;;;;20.20;4.32;;;8.20;99.90;;;;;;4993063;28;20065;-90
2023/02/01 10:31:20;;;;;;;19.58;3.92;;;8.20;99.90;;;;;;4995776;28;20235;-92
2023/02/01 10:33:57;;;;;;;23.38;3.97;;;8.20;99.90;;;;;;4998972;28;20061;-95
2023/02/01 10:36:32;;;;;;;22.75;4.05;;;8.20;99.90;;;;;;4977816;28;20051;-94
2023/02/01 10:39:04;;;;;;;21.48;3.47;;;8.20;99.90;;;;;;4970411;28;20069;-93
2023/02/01 10:44:04;;;;;;;20.33;3.63;;;8.20;99.90;;;;;;4981433;28;20051;-93
2023/02/01 10:46:31;;;;;;;20.70;3.63;;;8.20;99.90;;;;;;4974970;28;20444;-94
2023/02/01 10:49:00;;;;;;;20.40;3.70;;;8.20;99.90;;;;;;4958389;28;20503;-94
2023/02/01 10:51:52;;;;;;;19.58;3.42;;;8.10;99.90;;;;;;4978002;28;20072;-93
2023/02/01 10:54:21;;;;;;;22.90;4.07;;;8.10;99.90;;;;;;4972735;28;20061;-93
2023/02/01 10:56:48;;;;;;;23.42;4.47;;;8.10;99.90;;;;;;4968365;28;20035;-93
2023/02/01 10:59:25;;;;;;;21.70;3.40;;;8.10;99.90;;;;;;4996329;28;20595;-93
2023/02/01 11:01:59;;;;;;;23.98;4.25;;;8.00;99.90;;;;;;4968892;28;20118;-94
2023/02/01 11:04:26;;;;;;;22.40;4.45;;;8.00;99.90;;;;;;4972031;28;20043;-93
2023/02/01 11:07:22;;;;;;;22.75;3.85;;;8.00;99.90;;;;;;4956747;28;20050;-94
2023/02/01 11:09:51;;;;;;;24.60;4.05;;;7.90;99.90;;;;;;4990121;28;20053;-94
2023/02/01 11:12:32;;;;;;;26.17;4.60;;;7.90;99.90;;;;;;5017995;28;20034;-93
2023/02/01 11:15:14;;;;;;;21.48;3.83;;;7.90;99.90;;;;;;4982535;28;20035;-93
2023/02/01 11:17:43;;;;;;;19.73;3.13;;;7.80;99.90;;;;;;4985323;28;20033;-93
2023/02/01 11:20:18;;;;;;;23.92;3.75;;;7.80;99.90;;;;;;5011972;28;20090;-94
2023/02/01 11:22:55;;;;;;;20.65;3.75;;;7.80;99.90;;;;;;4993488;28;20023;-95
2023/02/01 11:29:01;;;;;;;24.35;3.35;;;7.80;99.90;;;;;;4904248;29;20072;-94
2023/02/01 11:32:05;;;;;;;20.90;3.38;;;7.80;99.90;;;;;;4909405;29;20060;-94
2023/02/01 11:34:45;;;;;;;24.55;4.30;;;7.80;99.90;;;;;;4910781;29;20040;-94
2023/02/01 11:37:28;;;;;;;17.73;3.03;;;7.80;99.90;;;;;;4932074;28;20030;-92
2023/02/01 11:44:00;;;;;;;25.73;3.97;;;7.90;99.90;;;;;;4933454;29;20103;-95
2023/02/01 11:46:33;;;;;;;18.50;3.80;;;7.80;99.90;;;;;;4908427;29;20047;-96
2023/02/01 11:52:57;;;;;;;22.60;4.13;;;7.90;99.90;;;;;;4916853;28;20042;-93
2023/02/01 11:56:02;;;;;;;22.08;4.68;;;7.90;99.90;;;;;;4988839;28;20045;-94
2023/02/01 12:02:52;;;;;;;26.33;4.32;;;7.90;99.90;;;;;;5001517;28;20107;-90
2023/02/01 12:05:46;;;;;;;20.45;3.80;;;7.90;99.90;;;;;;4941609;28;20038;-92
2023/02/01 12:08:49;;;;;;;16.50;3.50;;;7.90;99.90;;;;;;4990790;28;20050;-90
2023/02/01 12:11:20;;;;;;;21.38;4.15;;;7.90;99.90;;;;;;4988058;28;20038;-92
2023/02/01 12:14:04;;;;;;;30.05;3.97;;;7.90;99.90;;;;;;5006302;28;20041;-90
2023/02/01 12:17:06;;;;;;;20.17;3.45;;;8.00;99.90;;;;;;5018091;28;20065;-94
2023/02/01 12:20:03;;;;;;;17.90;3.85;;;8.00;99.90;;;;;;5025119;28;20057;-93
2023/02/01 12:22:35;;;;;;;20.27;3.80;;;8.00;99.90;;;;;;5016004;28;20033;-93
2023/02/01 12:25:14;;;;;;;24.38;3.83;;;8.00;99.90;;;;;;5010286;28;20029;-93
2023/02/01 12:28:23;;;;;;;19.40;3.33;;;8.00;99.90;;;;;;5015620;28;20089;-94
2023/02/01 12:31:08;;;;;;;26.05;4.20;;;8.10;99.90;;;;;;5009333;28;20022;-91
2023/02/01 12:34:20;;;;;;;21.30;3.58;;;8.10;99.90;;;;;;4993304;28;20044;-89
2023/02/01 12:37:14;;;;;;;18.30;3.58;;;8.10;99.90;;;;;;4996626;28;20034;-90
2023/02/01 12:40:23;;;;;;;18.17;2.92;;;8.20;99.90;;;;;;4982641;28;20030;-91
2023/02/01 12:43:08;;;;;;;18.25;3.53;;;8.20;99.90;;;;;;4994577;28;20038;-89
2023/02/01 12:45:40;;;;;;;33.13;5.40;;;8.30;99.90;;;;;;4976319;28;20105;-90
2023/02/01 12:48:48;;;;;;;17.02;2.88;;;8.30;99.90;;;;;;4964791;28;20491;-95
2023/02/01 12:51:20;;;;;;;20.92;3.00;;;8.40;99.90;;;;;;4959624;28;20035;-95
2023/02/01 12:54:01;;;;;;;20.15;3.25;;;8.40;99.90;;;;;;4981885;28;20038;-95
2023/02/01 12:56:37;;;;;;;22.25;3.63;;;8.40;99.90;;;;;;4981994;28;20045;-95
2023/02/01 12:59:29;;;;;;;21.63;3.55;;;8.40;99.90;;;;;;4978871;28;20045;-95
2023/02/01 13:02:38;;;;;;;18.95;3.53;;;8.40;99.90;;;;;;4979400;28;20042;-96
2023/02/01 13:05:18;;;;;;;21.80;4.43;;;8.40;99.90;;;;;;4988438;28;20026;-91
2023/02/01 13:08:13;;;;;;;22.77;3.72;;;8.50;99.90;;;;;;4996951;28;20030;-90
2023/02/01 13:10:45;;;;;;;22.02;4.32;;;8.50;99.90;;;;;;4967137;28;20050;-90
2023/02/01 13:13:17;;;;;;;17.40;3.45;;;8.50;99.90;;;;;;4971828;28;20082;-92
2023/02/01 13:16:24;;;;;;;16.48;3.20;;;8.60;99.90;;;;;;4967330;28;20093;-92
2023/02/01 13:19:09;;;;;;;21.17;3.08;;;8.60;99.90;;;;;;4969674;28;20039;-91
2023/02/01 13:21:54;;;;;;;15.65;4.15;;;8.60;99.90;;;;;;4979712;28;20029;-92
2023/02/01 13:24:50;;;;;;;19.80;3.28;;;8.60;99.90;;;;;;4952012;28;20039;-91
2023/02/01 13:27:17;;;;;;;20.73;2.90;;;8.60;99.90;;;;;;5010670;28;20026;-91
2023/02/01 13:33:48;;;;;;;22.00;3.05;;;8.60;99.90;;;;;;4985596;28;20034;-91
2023/02/01 13:36:38;;;;;;;19.63;3.38;;;8.60;99.90;;;;;;4975000;28;20034;-92
2023/02/01 13:39:43;;;;;;;23.85;5.25;;;8.60;99.90;;;;;;4963194;28;20125;-96
2023/02/01 13:42:44;;;;;;;19.23;3.22;;;8.70;99.90;;;;;;4960420;28;20039;-96
2023/02/01 13:45:39;;;;;;;20.00;2.88;;;8.70;99.90;;;;;;4953888;28;20102;-94
2023/02/01 13:48:37;;;;;;;19.45;3.20;;;8.70;99.90;;;;;;4974340;28;20034;-95
2023/02/01 13:56:43;;;;;;;17.00;3.28;;;8.70;99.90;;;;;;4999906;28;20069;-88
2023/02/01 13:59:39;;;;;;;18.92;3.22;;;8.70;99.90;;;;;;4977461;28;20030;-88
2023/02/01 14:02:51;;;;;;;20.67;2.88;;;8.70;99.90;;;;;;4970352;28;20042;-87
2023/02/01 14:05:29;;;;;;;19.75;3.28;;;8.80;99.90;;;;;;4897071;28;20084;-88
2023/02/01 14:14:24;;;;;;;17.63;2.88;;;8.80;99.90;;;;;;4901798;29;19943;-92
2023/02/01 14:16:55;;;;;;;17.45;3.20;;;8.80;99.90;;;;;;4986211;28;20052;-93
2023/02/01 14:19:43;;;;;;;20.42;3.42;;;8.80;99.90;;;;;;5006208;28;20031;-94
2023/02/01 14:22:23;;;;;;;14.43;2.97;;;8.80;99.90;;;;;;4974967;28;20046;-94
2023/02/01 14:25:42;;;;;;;13.80;2.70;;;8.80;99.90;;;;;;4990030;28;20038;-94
2023/02/01 14:28:42;;;;;;;15.75;3.03;;;8.80;99.90;;;;;;4912029;29;20028;-91
2023/02/01 14:31:33;;;;;;;17.13;3.28;;;8.80;99.90;;;;;;5021576;28;20034;-91
2023/02/01 14:34:24;;;;;;;21.90;4.15;;;8.90;99.90;;;;;;5011035;28;20026;-92
2023/02/01 14:37:26;;;;;;;15.95;3.78;;;8.80;99.90;;;;;;4991033;28;20045;-92
2023/02/01 14:40:05;;;;;;;19.95;3.20;;;8.90;99.90;;;;;;4999175;28;20038;-95
2023/02/01 14:42:52;;;;;;;15.77;3.22;;;8.90;99.90;;;;;;5015165;23;20057;-94
2023/02/01 14:45:21;;;;;;;16.10;3.88;;;8.90;99.90;;;;;;5004323;28;20049;-93
2023/02/01 14:47:58;;;;;;;22.42;3.80;;;8.90;99.90;;;;;;5005379;28;20042;-92
2023/02/01 14:50:30;;;;;;;18.23;3.30;;;8.90;99.90;;;;;;5005643;28;20050;-92
2023/02/01 14:53:19;;;;;;;18.38;3.33;;;8.90;99.90;;;;;;5003440;28;20100;-93
2023/02/01 14:55:53;;;;;;;15.95;2.63;;;8.90;99.90;;;;;;5005052;28;20049;-96
2023/02/01 14:58:41;;;;;;;22.98;3.10;;;9.00;99.90;;;;;;5030590;28;20034;-95
2023/02/01 15:01:29;;;;;;;18.00;3.17;;;8.90;99.90;;;;;;5000637;28;20122;-93
2023/02/01 15:04:10;;;;;;;23.77;3.55;;;9.00;99.90;;;;;;5006385;28;20088;-95
2023/02/01 15:06:57;;;;;;;14.88;2.85;;;9.00;99.90;;;;;;5009916;28;20470;-95
2023/02/01 15:12:32;;;;;;;17.25;3.20;;;9.00;99.90;;;;;;5059462;23;20053;-95
2023/02/01 15:15:13;;;;;;;16.75;3.35;;;9.00;99.90;;;;;;5004095;28;20030;-96
2023/02/01 15:17:40;;;;;;;19.10;2.92;;;9.00;99.90;;;;;;5071871;22;20073;-95